Time;durP1;ratioP1;P1;durP2;ratioP2;P2;SDS_P1;SDS_P2;PMS_P1;PMS_P2;Temp;Humidity;BMP_temperature;BMP_pressure;BME280_temperature;BME280_humidity;BME280_pressure;Samples;Min_cycle;Max_cycle;Signal;HPM_P1;HPM_P2
2021/12/30 00:04:58;;;;;;;35.72;15.02;;;;;;;9.75;90.87;100962.69;10452410;28;20038;-82
2021/12/30 00:09:58;;;;;;;;;;;;;;;9.82;90.28;100970.03;10419306;28;20116;-82
2021/12/30 00:14:58;;;;;;;36.95;10.43;;;;;;;9.83;90.24;100980.59;10453182;28;20015;-82
2021/12/30 00:20:00;;;;;;;40.47;10.30;;;;;;;9.75;90.35;100983.59;10469843;28;20073;-82
2021/12/30 00:25:01;;;;;;;29.38;11.07;;;;;;;9.67;90.10;100991.94;10451137;28;20037;-83
2021/12/30 00:30:03;;;;;;;23.85;8.75;;;;;;;9.64;90.46;100997.00;10451228;28;20039;-82
2021/12/30 00:35:04;;;;;;;32.35;9.85;;;;;;;9.67;90.59;100994.56;10436187;28;20055;-83
2021/12/30 00:40:06;;;;;;;29.25;9.25;;;;;;;9.70;90.37;100999.06;10452517;28;20536;-82
2021/12/30 00:45:06;;;;;;;40.50;10.48;;;;;;;9.74;90.51;100990.56;10450860;28;20057;-83
2021/12/30 00:50:13;;;;;;;28.70;8.25;;;;;;;9.70;90.13;100994.72;10437611;28;20063;-82
2021/12/30 00:55:14;;;;;;;30.33;8.88;;;;;;;9.77;90.54;101001.19;10460692;28;20023;-82
2021/12/30 01:00:15;;;;;;;47.22;9.60;;;;;;;9.62;90.20;101002.97;10458475;28;20462;-83
2021/12/30 01:05:16;;;;;;;30.33;8.50;;;;;;;9.63;90.50;101018.72;10493100;28;20040;-82
2021/12/30 01:10:20;;;;;;;29.77;9.73;;;;;;;9.71;90.77;101021.78;10473302;28;20353;-82
2021/12/30 01:15:32;;;;;;;27.55;9.65;;;;;;;9.82;90.66;101025.84;10490798;28;20114;-82
2021/12/30 01:20:33;;;;;;;41.95;9.65;;;;;;;9.89;90.27;101020.94;10457247;28;20135;-82
2021/12/30 01:25:34;;;;;;;38.13;8.90;;;;;;;10.05;90.06;101023.56;10456923;28;20028;-82
2021/12/30 01:30:37;;;;;;;34.55;12.00;;;;;;;10.10;90.05;101029.00;10456703;28;20082;-82
2021/12/30 01:35:37;;;;;;;25.75;7.97;;;;;;;10.07;89.79;101042.84;10442806;28;20102;-83
2021/12/30 01:40:40;;;;;;;28.88;7.70;;;;;;;10.09;90.24;101042.91;10457799;28;20090;-83
2021/12/30 01:45:41;;;;;;;25.95;9.38;;;;;;;10.17;90.28;101048.56;10455732;28;20404;-82
2021/12/30 01:50:42;;;;;;;40.28;10.40;;;;;;;10.21;90.43;101035.69;10456005;28;20041;-83
2021/12/30 01:55:43;;;;;;;21.73;7.88;;;;;;;10.37;90.75;101050.47;10456977;28;20083;-82
2021/12/30 02:00:44;;;;;;;33.10;11.02;;;;;;;10.36;90.58;101035.59;10454180;28;20052;-82
2021/12/30 02:05:45;;;;;;;25.35;9.20;;;;;;;10.42;90.59;101037.66;10434157;28;20041;-82
2021/12/30 02:10:47;;;;;;;24.75;9.95;;;;;;;10.50;91.17;101024.97;10457062;28;20037;-82
2021/12/30 02:15:48;;;;;;;23.10;9.50;;;;;;;10.60;90.92;101008.00;10454447;28;20087;-83
2021/12/30 02:20:54;;;;;;;23.43;7.70;;;;;;;10.58;91.18;101031.50;10438608;28;20063;-83
2021/12/30 02:25:56;;;;;;;35.85;10.15;;;;;;;10.54;92.09;101042.63;10456066;28;20392;-83
2021/12/30 02:30:58;;;;;;;33.97;10.57;;;;;;;10.56;92.03;101041.88;10438844;28;20104;-82
2021/12/30 02:35:58;;;;;;;23.10;10.13;;;;;;;10.60;92.69;101037.69;10455195;28;20447;-83
2021/12/30 02:40:59;;;;;;;32.40;12.00;;;;;;;10.65;92.41;101033.59;10455170;28;20185;-82
2021/12/30 02:46:00;;;;;;;33.30;10.98;;;;;;;10.63;92.97;101029.09;10455448;28;20411;-82
2021/12/30 02:51:03;;;;;;;31.13;12.00;;;;;;;10.63;93.05;101039.56;10453407;28;20064;-82
2021/12/30 02:56:04;;;;;;;44.35;11.35;;;;;;;10.57;92.93;101029.69;10453236;28;20033;-82
2021/12/30 03:01:12;;;;;;;37.33;14.77;;;;;;;10.64;92.94;101039.66;10415501;28;20033;-83
2021/12/30 03:06:13;;;;;;;25.38;11.10;;;;;;;10.65;93.22;101043.16;10436835;28;20063;-82
2021/12/30 03:11:14;;;;;;;22.83;11.15;;;;;;;10.60;93.60;101044.63;10435495;28;20028;-82
2021/12/30 03:16:23;;;;;;;25.63;10.55;;;;;;;10.64;93.46;101038.75;10444516;28;20825;-82
2021/12/30 03:21:24;;;;;;;21.63;9.38;;;;;;;10.63;93.96;101040.47;10469397;28;20033;-82
2021/12/30 03:26:25;;;;;;;22.13;9.80;;;;;;;10.67;94.11;101046.75;10452363;28;20138;-81
2021/12/30 03:31:25;;;;;;;26.83;10.45;;;;;;;10.67;93.81;101044.13;10485172;28;20101;-82
2021/12/30 03:36:26;;;;;;;21.98;8.45;;;;;;;10.65;93.75;101044.06;10452947;28;20458;-81
2021/12/30 03:41:27;;;;;;;22.48;9.18;;;;;;;10.70;94.39;101045.19;10452362;28;20029;-82
2021/12/30 03:46:28;;;;;;;20.33;7.38;;;;;;;10.71;94.31;101043.47;10484805;28;20025;-81
2021/12/30 03:51:30;;;;;;;13.18;6.95;;;;;;;10.77;94.12;101050.72;10467753;28;20124;-81
2021/12/30 03:56:30;;;;;;;18.40;7.83;;;;;;;10.73;94.07;101052.28;10454754;28;20072;-82
2021/12/30 04:01:31;;;;;;;14.48;6.35;;;;;;;10.78;94.24;101060.38;10450924;28;20357;-82
2021/12/30 04:06:32;;;;;;;12.35;6.13;;;;;;;10.84;94.22;101055.44;10484491;28;20051;-81
2021/12/30 04:11:34;;;;;;;9.93;6.28;;;;;;;10.79;94.36;101049.09;10452532;28;20025;-81
2021/12/30 04:16:35;;;;;;;8.60;4.00;;;;;;;10.84;94.71;101051.09;10453071;28;20036;-81
2021/12/30 04:21:35;;;;;;;7.63;3.97;;;;;;;10.92;94.60;101054.13;10450203;28;20389;-82
2021/12/30 04:26:36;;;;;;;9.02;4.05;;;;;;;10.97;95.02;101056.94;10440891;28;20137;-82
2021/12/30 04:31:36;;;;;;;5.93;3.05;;;;;;;11.04;94.55;101068.63;10460937;28;20025;-81
2021/12/30 04:36:37;;;;;;;8.95;4.28;;;;;;;11.09;95.05;101061.91;10491798;28;20072;-82
2021/12/30 04:41:37;;;;;;;6.60;3.85;;;;;;;11.09;94.91;101075.88;10461031;28;20033;-82
2021/12/30 04:46:38;;;;;;;7.57;3.90;;;;;;;11.17;94.99;101073.66;10460605;28;20040;-81
2021/12/30 04:51:39;;;;;;;14.90;5.53;;;;;;;11.27;94.77;101091.59;10475029;28;20103;-82
2021/12/30 04:56:39;;;;;;;11.00;4.80;;;;;;;11.34;94.71;101100.66;10475814;28;20059;-82
2021/12/30 05:01:40;;;;;;;9.77;5.13;;;;;;;11.34;95.12;101092.78;10424302;28;20029;-82
2021/12/30 05:06:40;;;;;;;8.98;5.10;;;;;;;11.37;94.96;101089.44;10476212;28;20036;-82
2021/12/30 05:11:42;;;;;;;9.80;5.20;;;;;;;11.38;94.77;101092.09;10457053;28;20037;-82
2021/12/30 05:16:43;;;;;;;15.30;8.33;;;;;;;11.44;95.10;101094.13;10477382;28;20032;-82
2021/12/30 05:21:44;;;;;;;10.02;5.68;;;;;;;11.46;94.73;101089.88;10442373;28;20086;-83
2021/12/30 05:26:44;;;;;;;15.88;9.95;;;;;;;11.55;95.01;101085.06;10456741;28;20117;-82
2021/12/30 05:31:45;;;;;;;12.40;7.15;;;;;;;11.59;94.66;101072.97;10439287;28;20049;-79
2021/12/30 05:36:45;;;;;;;8.57;4.45;;;;;;;11.65;94.94;101083.75;10453185;28;20100;-83
2021/12/30 05:41:46;;;;;;;7.03;4.40;;;;;;;11.69;94.75;101090.06;10448410;28;20025;-83
2021/12/30 05:46:48;;;;;;;6.80;4.57;;;;;;;11.77;94.27;101085.16;10457236;28;20080;-82
2021/12/30 05:51:48;;;;;;;7.95;4.78;;;;;;;11.79;94.37;101112.34;10456546;28;20112;-84
2021/12/30 05:56:49;;;;;;;8.52;3.67;;;;;;;11.80;93.91;101119.38;10454938;28;20043;-83
2021/12/30 06:01:49;;;;;;;5.43;3.90;;;;;;;11.79;93.71;101123.75;10454806;28;20069;-86
2021/12/30 06:06:50;;;;;;;5.57;3.53;;;;;;;11.82;93.86;101130.84;10438460;28;20123;-87
2021/12/30 06:11:51;;;;;;;6.90;3.97;;;;;;;11.84;93.54;101131.81;10454820;28;20068;-88
2021/12/30 06:16:51;;;;;;;5.57;2.92;;;;;;;11.92;93.74;101143.56;10439101;28;20060;-89
2021/12/30 06:21:52;;;;;;;6.38;2.90;;;;;;;11.90;93.03;101150.44;10434221;28;20116;-89
2021/12/30 06:26:52;;;;;;;4.50;2.58;;;;;;;11.92;93.26;101140.94;10486808;28;20068;-88
2021/12/30 06:31:53;;;;;;;6.15;3.25;;;;;;;11.90;92.94;101138.25;10455878;28;20106;-89
2021/12/30 06:36:53;;;;;;;5.40;3.40;;;;;;;11.86;93.03;101145.88;10454090;28;20515;-90
2021/12/30 06:41:54;;;;;;;5.05;3.78;;;;;;;11.88;93.30;101137.28;10454919;28;20041;-90
2021/12/30 06:46:58;;;;;;;3.92;2.72;;;;;;;11.88;93.28;101146.84;10452306;28;20080;-90
2021/12/30 06:51:58;;;;;;;3.60;2.33;;;;;;;11.87;93.37;101156.47;10455476;28;20025;-90
2021/12/30 06:57:00;;;;;;;4.57;2.80;;;;;;;11.94;92.85;101165.50;10487206;28;20052;-89
2021/12/30 07:02:01;;;;;;;;;;;;;;;11.97;92.69;101170.91;10437419;28;20139;-88
2021/12/30 07:07:02;;;;;;;4.47;2.50;;;;;;;11.91;92.41;101170.59;10486997;28;20474;-89
2021/12/30 07:12:03;;;;;;;5.57;2.85;;;;;;;11.92;92.32;101179.38;10452950;28;20112;-88
2021/12/30 07:17:03;;;;;;;4.55;2.35;;;;;;;11.90;92.58;101189.78;10454141;28;20086;-88
2021/12/30 07:22:04;;;;;;;4.97;2.75;;;;;;;11.89;92.46;101193.25;10469536;28;20025;-87
2021/12/30 07:27:04;;;;;;;6.60;2.78;;;;;;;11.90;92.52;101189.78;10451855;28;20397;-87
2021/12/30 07:32:05;;;;;;;3.90;2.67;;;;;;;11.92;92.85;101201.25;10451705;28;20459;-89
2021/12/30 07:37:06;;;;;;;5.13;3.42;;;;;;;11.93;92.68;101218.78;10453153;28;20107;-88
2021/12/30 07:42:06;;;;;;;8.75;4.68;;;;;;;11.93;92.39;101226.66;10436188;28;20027;-90
2021/12/30 07:47:07;;;;;;;4.68;3.38;;;;;;;12.03;92.08;101220.19;10452494;28;20047;-89
2021/12/30 07:52:07;;;;;;;8.55;5.22;;;;;;;12.13;91.06;101237.25;10466930;28;20052;-90
2021/12/30 07:57:08;;;;;;;5.45;3.38;;;;;;;12.11;91.24;101244.13;10453598;28;20493;-89
2021/12/30 08:02:08;;;;;;;4.00;2.40;;;;;;;12.11;91.09;101254.63;10452764;28;20048;-91
2021/12/30 08:07:09;;;;;;;3.85;2.35;;;;;;;12.18;90.71;101261.97;10439265;28;20110;-89
2021/12/30 08:12:10;;;;;;;3.78;2.25;;;;;;;12.28;90.05;101253.69;10451356;28;20458;-88
2021/12/30 08:17:10;;;;;;;4.32;3.60;;;;;;;12.29;90.01;101259.88;10468655;28;20067;-91
2021/12/30 08:22:11;;;;;;;4.03;2.17;;;;;;;12.34;89.71;101269.72;10450873;28;20122;-88
2021/12/30 08:27:13;;;;;;;5.85;3.13;;;;;;;12.37;89.78;101271.63;10483053;28;20103;-88
2021/12/30 08:32:13;;;;;;;9.15;5.43;;;;;;;12.42;89.41;101256.06;10448621;28;20499;-87
2021/12/30 08:37:15;;;;;;;18.45;12.43;;;;;;;12.51;89.58;101279.25;10450156;28;20052;-87
2021/12/30 08:42:24;;;;;;;5.63;4.25;;;;;;;12.62;88.71;101286.78;10432633;28;20040;-88
2021/12/30 08:47:25;;;;;;;8.35;5.18;;;;;;;12.76;88.35;101282.16;10450199;28;20021;-90
2021/12/30 08:52:27;;;;;;;4.05;2.55;;;;;;;12.79;87.78;101281.38;10480477;28;20477;-86
2021/12/30 08:57:27;;;;;;;3.38;1.85;;;;;;;12.85;87.66;101278.16;10452902;28;20465;-85
2021/12/30 09:02:28;;;;;;;3.40;1.88;;;;;;;12.86;87.40;101280.84;10449447;28;20123;-85
2021/12/30 09:07:29;;;;;;;3.97;1.85;;;;;;;12.86;87.43;101283.47;10462081;28;20028;-85
2021/12/30 09:12:29;;;;;;;3.95;2.03;;;;;;;12.85;87.65;101293.91;10453298;28;20070;-86
2021/12/30 09:17:30;;;;;;;3.65;1.48;;;;;;;12.85;87.50;101286.91;10503189;28;20037;-86
2021/12/30 09:22:30;;;;;;;3.33;1.38;;;;;;;12.95;87.40;101314.50;10470623;28;20491;-88
2021/12/30 09:27:32;;;;;;;3.45;1.75;;;;;;;12.98;87.17;101319.00;10464133;28;20463;-87
2021/12/30 09:32:33;;;;;;;4.38;1.40;;;;;;;13.03;87.06;101341.13;10461057;28;20032;-91
2021/12/30 09:37:33;;;;;;;4.03;1.40;;;;;;;13.05;87.04;101331.56;10412659;28;20067;-89
2021/12/30 09:42:34;;;;;;;5.40;1.55;;;;;;;13.01;87.09;101333.19;10454982;28;20098;-88
2021/12/30 09:47:34;;;;;;;11.38;2.03;;;;;;;12.99;87.05;101328.66;10440691;28;20025;-89
2021/12/30 09:52:35;;;;;;;3.15;1.50;;;;;;;12.91;87.35;101347.63;10455723;28;20115;-88
2021/12/30 09:57:36;;;;;;;3.72;1.70;;;;;;;13.05;87.55;101339.47;10441215;28;20444;-89
2021/12/30 10:02:37;;;;;;;4.88;3.17;;;;;;;13.26;86.41;101338.63;10439897;28;20028;-90
2021/12/30 10:07:39;;;;;;;5.35;2.20;;;;;;;13.52;85.57;101339.81;10455760;28;20024;-89
2021/12/30 10:12:40;;;;;;;7.93;2.67;;;;;;;13.78;83.95;101354.06;10457243;28;20539;-85
2021/12/30 10:17:40;;;;;;;5.18;2.45;;;;;;;13.55;84.81;101357.44;10454308;28;20072;-83
2021/12/30 10:22:41;;;;;;;4.78;2.50;;;;;;;13.41;85.32;101348.94;10457234;28;20057;-84
2021/12/30 10:27:41;;;;;;;4.95;2.72;;;;;;;13.28;85.94;101350.09;10457786;28;20040;-83
2021/12/30 10:32:42;;;;;;;13.98;6.85;;;;;;;13.09;85.86;101344.03;10470429;28;20496;-84
2021/12/30 10:37:44;;;;;;;16.00;5.03;;;;;;;13.15;85.84;101361.81;10486980;28;20044;-89
2021/12/30 10:42:45;;;;;;;;;;;;;;;13.24;85.54;101356.06;10452487;28;20037;-87
2021/12/30 10:47:53;;;;;;;11.50;4.07;;;;;;;13.26;85.53;101336.00;10451119;28;19917;-88
2021/12/30 10:52:54;;;;;;;13.35;4.53;;;;;;;13.27;85.21;101357.09;10434362;28;20291;-86
2021/12/30 10:57:56;;;;;;;9.33;4.83;;;;;;;13.41;84.74;101362.06;10452275;28;20028;-92
2021/12/30 11:03:20;;;;;;;8.55;3.80;;;;;;;13.63;83.89;101356.03;10465975;28;20027;-88
2021/12/30 11:08:28;;;;;;;5.18;2.60;;;;;;;13.63;83.26;101356.94;10451625;28;20083;-88
2021/12/30 11:13:29;;;;;;;10.60;3.38;;;;;;;13.62;83.15;101368.31;10452492;28;20020;-92
2021/12/30 11:18:39;;;;;;;13.40;4.15;;;;;;;13.61;83.06;101362.97;10456390;28;20045;-88
2021/12/30 11:23:40;;;;;;;7.65;3.53;;;;;;;13.58;83.24;101366.38;10463597;28;20396;-88
2021/12/30 11:28:41;;;;;;;9.63;4.53;;;;;;;13.44;83.24;101364.88;10460105;28;20049;-87
2021/12/30 11:33:41;;;;;;;8.65;3.25;;;;;;;13.34;83.70;101360.88;10439079;28;20041;-84
2021/12/30 11:38:42;;;;;;;11.32;4.53;;;;;;;13.19;84.35;101366.38;10450097;28;20093;-83
2021/12/30 11:43:43;;;;;;;6.53;3.33;;;;;;;13.13;84.72;101368.72;10454166;28;20033;-88
2021/12/30 11:48:52;;;;;;;8.13;3.67;;;;;;;13.15;84.70;101375.84;10448403;28;20400;-86
2021/12/30 11:53:53;;;;;;;9.60;5.55;;;;;;;13.11;84.41;101366.00;10465982;28;20029;-84
2021/12/30 11:58:54;;;;;;;5.88;3.13;;;;;;;13.22;83.70;101351.63;10447465;28;20052;-82
2021/12/30 12:03:54;;;;;;;5.15;3.40;;;;;;;13.34;83.27;101342.47;10432933;28;20021;-86
2021/12/30 12:09:13;;;;;;;11.65;4.03;;;;;;;13.46;82.91;101336.91;10452219;28;20064;-84
2021/12/30 12:14:17;;;;;;;6.35;2.65;;;;;;;13.53;82.25;101338.06;10475012;28;20116;-86
2021/12/30 12:19:19;;;;;;;8.93;2.75;;;;;;;13.44;82.16;101335.94;10457182;28;20080;-89
2021/12/30 12:24:25;;;;;;;5.25;2.85;;;;;;;13.40;82.53;101344.50;10457306;28;20063;-92
2021/12/30 12:29:28;;;;;;;7.03;2.65;;;;;;;13.55;81.70;101350.47;10467584;28;20025;-91
2021/12/30 12:34:39;;;;;;;8.10;3.47;;;;;;;13.71;80.69;101337.97;10469758;28;20071;-87
2021/12/30 12:39:39;;;;;;;6.35;3.65;;;;;;;13.79;79.88;101331.28;10489580;28;20047;-88
2021/12/30 12:44:40;;;;;;;6.70;3.00;;;;;;;13.82;80.04;101343.66;10466169;28;20043;-85
2021/12/30 12:49:41;;;;;;;5.47;2.78;;;;;;;13.93;79.79;101353.81;10466176;28;20061;-86
2021/12/30 12:54:47;;;;;;;4.63;2.75;;;;;;;14.21;78.85;101369.81;10475054;28;20021;-95
2021/12/30 12:59:48;;;;;;;9.35;2.97;;;;;;;14.08;79.53;101365.81;10476433;28;20489;-89
2021/12/30 13:04:48;;;;;;;4.95;2.25;;;;;;;14.03;79.47;101375.25;10472476;28;20037;-84
2021/12/30 13:09:49;;;;;;;4.05;2.92;;;;;;;13.79;79.90;101369.00;10479163;28;20053;-83
2021/12/30 13:14:50;;;;;;;7.85;3.85;;;;;;;13.78;79.75;101376.84;10457339;28;20404;-86
2021/12/30 13:19:50;;;;;;;4.88;2.40;;;;;;;13.71;80.31;101375.66;10471484;28;20060;-85
2021/12/30 13:24:57;;;;;;;6.78;3.30;;;;;;;13.78;79.80;101380.38;10465507;28;20496;-86
2021/12/30 13:30:13;;;;;;;11.80;4.05;;;;;;;13.62;80.47;101388.44;10473186;28;20060;-85
2021/12/30 13:35:31;;;;;;;5.32;2.30;;;;;;;13.62;80.36;101391.97;10460558;28;20087;-86
2021/12/30 13:40:40;;;;;;;5.72;3.67;;;;;;;13.72;80.08;101393.25;10474199;28;20060;-85
2021/12/30 13:45:45;;;;;;;8.57;2.55;;;;;;;13.91;79.53;101401.94;10458166;28;20496;-85
2021/12/30 13:50:59;;;;;;;4.75;2.35;;;;;;;13.76;80.11;101413.59;10422418;28;20120;-85
2021/12/30 13:56:07;;;;;;;13.20;5.30;;;;;;;13.60;80.17;101419.94;10434263;28;20059;-86
2021/12/30 14:01:13;;;;;;;5.78;3.13;;;;;;;13.50;80.38;101431.75;10455634;28;20036;-85
2021/12/30 14:06:17;;;;;;;8.88;2.72;;;;;;;13.37;81.19;101437.25;10471393;28;20035;-84
2021/12/30 14:11:35;;;;;;;4.85;2.47;;;;;;;13.28;81.34;101427.25;10484738;28;20025;-84
2021/12/30 14:16:45;;;;;;;6.82;2.42;;;;;;;13.20;82.15;101433.88;10479295;28;20086;-85
2021/12/30 14:21:49;;;;;;;9.52;3.95;;;;;;;13.20;82.09;101434.75;10427472;28;20051;-85
2021/12/30 14:26:51;;;;;;;23.00;10.43;;;;;;;13.26;81.95;101426.28;10469094;28;20170;-86
2021/12/30 14:31:52;;;;;;;6.07;2.97;;;;;;;13.28;81.41;101428.97;10464349;28;20029;-83
2021/12/30 14:37:16;;;;;;;4.80;2.25;;;;;;;13.31;81.53;101437.91;10462532;28;20405;-84
2021/12/30 14:42:23;;;;;;;5.10;2.50;;;;;;;13.27;82.05;101435.03;10443727;28;20397;-85
2021/12/30 14:47:25;;;;;;;5.05;2.85;;;;;;;13.33;81.33;101449.38;10479671;28;20484;-85
2021/12/30 14:52:31;;;;;;;8.13;3.33;;;;;;;13.28;81.36;101444.72;10457274;28;20143;-85
2021/12/30 14:57:32;;;;;;;6.55;2.55;;;;;;;13.25;82.04;101450.75;10460473;28;20423;-85
2021/12/30 15:02:34;;;;;;;11.70;2.53;;;;;;;13.25;82.04;101457.72;10447055;28;20053;-84
2021/12/30 15:07:37;;;;;;;9.45;2.97;;;;;;;13.17;82.44;101460.91;10462515;28;20109;-86
2021/12/30 15:12:41;;;;;;;11.07;3.03;;;;;;;13.05;82.89;101456.00;10474936;28;20025;-86
2021/12/30 15:17:42;;;;;;;5.38;2.97;;;;;;;13.04;83.25;101464.69;10427274;28;20037;-85
2021/12/30 15:22:43;;;;;;;10.97;3.70;;;;;;;12.99;83.14;101465.28;10439725;28;20102;-86
2021/12/30 15:27:44;;;;;;;8.77;3.20;;;;;;;12.97;83.40;101482.72;10472637;28;20037;-85
2021/12/30 15:32:45;;;;;;;7.72;2.88;;;;;;;12.88;83.82;101489.34;10458351;28;20543;-86
2021/12/30 15:37:46;;;;;;;15.87;4.23;;;;;;;12.79;84.59;101496.75;10464886;28;20543;-85
2021/12/30 15:42:47;;;;;;;15.77;3.63;;;;;;;12.78;84.51;101484.47;10434813;28;20429;-85
2021/12/30 15:47:48;;;;;;;6.60;2.70;;;;;;;12.74;84.91;101511.41;10467771;28;20112;-86
2021/12/30 15:52:52;;;;;;;11.20;4.63;;;;;;;12.69;84.95;101512.91;10460717;28;20044;-87
2021/12/30 15:57:58;;;;;;;6.65;3.45;;;;;;;12.57;86.29;101526.34;10452325;28;20033;-86
2021/12/30 16:02:58;;;;;;;4.85;2.70;;;;;;;12.51;86.62;101521.66;10460409;28;20111;-85
2021/12/30 16:07:59;;;;;;;7.10;3.63;;;;;;;12.41;87.19;101519.41;10473122;28;20457;-85
2021/12/30 16:13:00;;;;;;;7.50;3.25;;;;;;;12.32;87.67;101533.84;10458944;28;20538;-84
2021/12/30 16:18:00;;;;;;;8.52;3.45;;;;;;;12.28;88.16;101531.91;10468891;28;20162;-83
2021/12/30 16:23:01;;;;;;;10.63;4.75;;;;;;;12.20;88.49;101541.09;10462328;28;20099;-84
2021/12/30 16:28:02;;;;;;;15.73;5.68;;;;;;;12.07;89.08;101546.53;10485054;28;20170;-84
2021/12/30 16:33:05;;;;;;;8.95;4.47;;;;;;;12.02;89.36;101547.19;10479399;28;20060;-84
2021/12/30 16:38:05;;;;;;;15.18;6.05;;;;;;;12.00;89.31;101551.44;10475916;28;20079;-83
2021/12/30 16:43:07;;;;;;;11.52;5.25;;;;;;;12.06;89.47;101564.00;10472072;28;20044;-83
2021/12/30 16:48:09;;;;;;;9.95;5.40;;;;;;;12.19;88.76;101537.59;10475568;28;20543;-83
2021/12/30 16:53:11;;;;;;;10.63;4.00;;;;;;;12.24;88.12;101566.69;10504022;28;20393;-83
2021/12/30 16:58:12;;;;;;;8.80;4.95;;;;;;;12.19;88.44;101569.09;10445522;28;20287;-83
2021/12/30 17:03:15;;;;;;;14.85;6.88;;;;;;;12.24;88.61;101576.28;10453735;28;20436;-82
2021/12/30 17:08:16;;;;;;;11.90;5.47;;;;;;;12.22;88.42;101581.44;10459217;28;20052;-82
2021/12/30 17:13:17;;;;;;;9.80;4.22;;;;;;;12.18;88.82;101583.03;10443062;28;20029;-83
2021/12/30 17:18:17;;;;;;;13.57;5.95;;;;;;;12.18;88.43;101588.28;10458273;28;20065;-83
2021/12/30 17:23:23;;;;;;;11.50;5.43;;;;;;;12.20;88.53;101590.97;10442241;28;20056;-83
2021/12/30 17:28:24;;;;;;;11.20;4.47;;;;;;;12.24;88.46;101586.78;10458132;28;20041;-83
2021/12/30 17:33:25;;;;;;;64.45;31.92;;;;;;;12.26;88.26;101593.91;10455538;28;20024;-86
2021/12/30 17:38:26;;;;;;;15.80;4.50;;;;;;;12.25;88.24;101605.22;10468281;28;20432;-82
2021/12/30 17:43:26;;;;;;;10.60;3.85;;;;;;;12.28;88.05;101600.13;10424750;28;20040;-83
2021/12/30 17:48:32;;;;;;;6.70;3.97;;;;;;;12.27;88.31;101602.69;10452091;28;20460;-82
2021/12/30 17:53:33;;;;;;;12.88;4.88;;;;;;;12.28;87.93;101601.88;10441123;28;20036;-83
2021/12/30 17:58:33;;;;;;;7.47;3.50;;;;;;;12.30;88.09;101608.09;10456902;28;20442;-82
2021/12/30 18:03:34;;;;;;;9.18;3.70;;;;;;;12.32;87.68;101599.47;10455723;28;20068;-82
2021/12/30 18:08:34;;;;;;;9.85;3.22;;;;;;;12.26;87.76;101600.91;10472648;28;20064;-83
2021/12/30 18:13:35;;;;;;;9.90;3.53;;;;;;;12.33;87.50;101600.41;10490807;28;20060;-83
2021/12/30 18:18:35;;;;;;;8.05;3.28;;;;;;;12.38;87.27;101608.50;10470114;28;20032;-81
2021/12/30 18:23:37;;;;;;;9.60;4.72;;;;;;;12.36;87.61;101611.06;10455428;28;20061;-81
2021/12/30 18:28:38;;;;;;;10.20;4.27;;;;;;;12.35;87.43;101614.50;10455792;28;20028;-82
2021/12/30 18:33:38;;;;;;;9.57;5.03;;;;;;;12.30;88.16;101623.84;10437210;28;20616;-82
2021/12/30 18:38:39;;;;;;;9.45;5.30;;;;;;;12.23;88.30;101637.47;10454768;28;20088;-81
2021/12/30 18:43:40;;;;;;;8.52;4.88;;;;;;;12.14;88.98;101624.75;10456350;28;20041;-81
2021/12/30 18:48:41;;;;;;;8.60;5.55;;;;;;;12.16;89.17;101628.34;10460923;28;20032;-80
2021/12/30 18:53:42;;;;;;;8.77;4.60;;;;;;;12.04;89.84;101637.38;10453450;28;20035;-78
2021/12/30 18:58:44;;;;;;;10.52;6.07;;;;;;;11.91;90.63;101637.50;10425179;28;20033;-79
2021/12/30 19:03:44;;;;;;;10.95;5.97;;;;;;;11.81;91.10;101646.59;10444465;28;20017;-80
2021/12/30 19:08:45;;;;;;;10.00;6.47;;;;;;;11.75;91.98;101636.66;10452747;28;20025;-79
2021/12/30 19:13:46;;;;;;;10.23;7.28;;;;;;;11.72;92.17;101651.34;10436920;28;20104;-78
2021/12/30 19:18:47;;;;;;;11.45;6.30;;;;;;;11.68;93.07;101651.97;10453913;28;20401;-79
2021/12/30 19:23:48;;;;;;;16.58;9.95;;;;;;;11.68;93.18;101654.59;10436617;28;20106;-78
2021/12/30 19:28:49;;;;;;;12.18;7.38;;;;;;;11.69;93.05;101657.28;10453202;28;20044;-80
2021/12/30 19:33:49;;;;;;;11.25;7.15;;;;;;;11.64;92.63;101660.50;10485951;28;20063;-80
2021/12/30 19:38:51;;;;;;;28.73;9.77;;;;;;;11.63;92.73;101662.19;10509626;28;20052;-81
2021/12/30 19:43:52;;;;;;;9.50;6.18;;;;;;;11.59;93.12;101674.25;10459366;28;20044;-80
2021/12/30 19:48:52;;;;;;;15.07;6.85;;;;;;;11.60;93.13;101669.88;10468656;28;20021;-80
2021/12/30 19:53:53;;;;;;;9.48;6.28;;;;;;;11.62;93.05;101676.13;10454752;28;20498;-80
2021/12/30 19:58:54;;;;;;;10.25;6.57;;;;;;;11.70;92.56;101677.44;10450835;28;20031;-81
2021/12/30 20:03:54;;;;;;;8.52;5.07;;;;;;;11.81;91.94;101672.81;10459810;28;20440;-80
2021/12/30 20:08:55;;;;;;;8.80;5.35;;;;;;;11.85;91.36;101677.41;10450774;28;20056;-81
2021/12/30 20:13:55;;;;;;;10.40;4.88;;;;;;;11.83;91.17;101681.69;10450243;28;20036;-80
2021/12/30 20:18:57;;;;;;;13.38;5.72;;;;;;;11.87;91.36;101680.13;10455495;28;20043;-79
2021/12/30 20:24:00;;;;;;;6.97;4.43;;;;;;;11.89;90.60;101684.63;10466835;28;20053;-80
2021/12/30 20:29:05;;;;;;;10.55;6.60;;;;;;;11.90;90.50;101682.91;10450750;28;20041;-80
2021/12/30 20:34:09;;;;;;;10.40;6.57;;;;;;;11.75;90.29;101685.59;10472286;28;20036;-80
2021/12/30 20:39:10;;;;;;;14.18;6.30;;;;;;;11.69;91.08;101683.50;10437306;28;20041;-80
2021/12/30 20:44:11;;;;;;;20.83;6.90;;;;;;;11.63;91.04;101693.66;10463235;28;20033;-81
2021/12/30 20:49:11;;;;;;;25.85;7.22;;;;;;;11.61;90.85;101703.16;10452104;28;20116;-80
2021/12/30 20:54:14;;;;;;;12.63;6.25;;;;;;;11.71;90.98;101712.47;10452854;28;20026;-81
2021/12/30 20:59:15;;;;;;;8.77;5.25;;;;;;;11.80;90.36;101709.44;10456023;28;20163;-82
2021/12/30 21:04:15;;;;;;;15.70;5.97;;;;;;;11.83;90.38;101715.78;10473964;28;20142;-80
2021/12/30 21:09:16;;;;;;;10.65;4.55;;;;;;;11.87;90.03;101722.09;10468190;28;20108;-82
2021/12/30 21:14:16;;;;;;;11.30;4.85;;;;;;;11.94;89.85;101729.47;10467377;28;20059;-81
2021/12/30 21:19:25;;;;;;;18.13;6.38;;;;;;;11.94;89.28;101728.59;10494969;28;20021;-81
2021/12/30 21:24:28;;;;;;;20.20;6.18;;;;;;;11.92;89.14;101724.97;10441249;28;20029;-82
2021/12/30 21:29:29;;;;;;;8.43;4.43;;;;;;;11.90;89.13;101738.00;10469061;28;20511;-81
2021/12/30 21:34:32;;;;;;;15.07;5.47;;;;;;;11.85;88.92;101734.19;10459405;28;20040;-81
2021/12/30 21:39:32;;;;;;;7.32;5.18;;;;;;;11.75;89.65;101733.69;10455230;28;20120;-79
2021/12/30 21:44:34;;;;;;;10.10;5.72;;;;;;;11.72;89.73;101746.63;10420181;28;20437;-80
2021/12/30 21:49:35;;;;;;;11.68;5.00;;;;;;;11.73;89.27;101758.03;10456313;28;20492;-86
2021/12/30 21:54:35;;;;;;;10.15;3.90;;;;;;;11.80;88.96;101740.91;10440870;28;20024;-86
2021/12/30 21:59:36;;;;;;;10.15;4.85;;;;;;;11.73;88.75;101737.94;10452393;28;20021;-79
2021/12/30 22:04:36;;;;;;;10.85;4.40;;;;;;;11.61;89.52;101734.63;10453772;28;20031;-79
2021/12/30 22:09:37;;;;;;;10.70;4.40;;;;;;;11.63;89.88;101737.34;10438832;28;20530;-82
2021/12/30 22:14:39;;;;;;;12.57;5.53;;;;;;;11.68;89.04;101734.16;10470327;28;20159;-81
2021/12/30 22:19:40;;;;;;;8.35;3.50;;;;;;;11.63;88.89;101730.38;10439676;28;20378;-82
2021/12/30 22:24:40;;;;;;;13.65;4.80;;;;;;;11.62;89.19;101730.28;10456021;28;20190;-81
2021/12/30 22:29:41;;;;;;;12.32;4.40;;;;;;;11.65;89.15;101727.84;10473108;28;20110;-81
2021/12/30 22:34:41;;;;;;;8.90;3.60;;;;;;;11.72;88.37;101727.38;10490751;28;20076;-81
2021/12/30 22:39:42;;;;;;;9.35;3.47;;;;;;;11.75;87.53;101722.31;10455566;28;20061;-79
2021/12/30 22:44:42;;;;;;;8.25;6.20;;;;;;;11.75;87.71;101722.31;10452965;28;20416;-81
2021/12/30 22:49:43;;;;;;;9.50;4.03;;;;;;;11.75;87.11;101712.69;10435529;28;20021;-81
2021/12/30 22:54:43;;;;;;;9.18;4.07;;;;;;;11.80;86.85;101696.31;10453161;28;20499;-81
2021/12/30 22:59:44;;;;;;;7.63;4.05;;;;;;;11.85;86.61;101708.91;10465477;28;20023;-81
2021/12/30 23:04:45;;;;;;;14.95;5.07;;;;;;;11.86;86.18;101713.31;10454594;28;20473;-85